createdAt,value
2022-11-29T00:01:28.405Z,3.49
2022-11-29T00:03:57.814Z,3.43
2022-11-29T00:06:27.796Z,3.59
2022-11-29T00:08:56.662Z,3.28
2022-11-29T00:11:43.522Z,3.52
2022-11-29T00:14:15.184Z,3.70
2022-11-29T00:16:43.543Z,3.83
2022-11-29T00:19:14.241Z,3.85
2022-11-29T00:21:42.116Z,3.76
2022-11-29T00:24:10.301Z,3.61
2022-11-29T00:26:39.285Z,3.69
2022-11-29T00:29:07.582Z,3.82
2022-11-29T00:31:35.850Z,3.73
2022-11-29T00:34:06.922Z,3.74
2022-11-29T00:36:36.587Z,3.72
2022-11-29T00:39:06.472Z,3.70
2022-11-29T00:41:34.590Z,3.79
2022-11-29T00:44:02.497Z,3.66
2022-11-29T00:46:30.399Z,3.56
2022-11-29T00:48:58.316Z,3.42
2022-11-29T00:51:26.264Z,3.43
2022-11-29T00:53:55.600Z,3.27
2022-11-29T00:56:23.492Z,3.47
2022-11-29T00:58:51.389Z,3.53
2022-11-29T01:01:19.745Z,3.40
2022-11-29T01:03:47.763Z,3.46
2022-11-29T01:06:18.583Z,3.44
2022-11-29T01:08:47.800Z,3.30
2022-11-29T01:11:19.826Z,2.69
2022-11-29T01:13:48.361Z,3.59
2022-11-29T01:16:17.029Z,3.53
2022-11-29T01:18:45.288Z,3.51
2022-11-29T01:21:15.312Z,3.68
2022-11-29T01:23:44.051Z,3.70
2022-11-29T01:26:14.611Z,3.66
2022-11-29T01:28:46.427Z,3.61
2022-11-29T01:31:17.620Z,3.59
2022-11-29T01:33:45.615Z,3.68
2022-11-29T01:36:14.747Z,3.61
2022-11-29T01:38:43.588Z,3.61
2022-11-29T01:41:14.381Z,3.59
2022-11-29T01:43:59.348Z,3.49
2022-11-29T01:46:28.501Z,3.76
2022-11-29T01:49:01.479Z,3.60
2022-11-29T01:51:30.530Z,3.70
2022-11-29T01:53:59.263Z,3.94
2022-11-29T01:56:28.892Z,3.76
2022-11-29T01:58:58.540Z,3.79
2022-11-29T02:01:27.288Z,3.69
2022-11-29T02:03:55.832Z,3.83
2022-11-29T02:06:24.655Z,3.74
2022-11-29T02:08:52.610Z,3.64
2022-11-29T02:11:59.877Z,3.65
2022-11-29T02:14:56.147Z,3.52
2022-11-29T02:17:34.218Z,3.56
2022-11-29T02:20:43.608Z,3.57
2022-11-29T02:23:27.712Z,3.45
2022-11-29T02:26:08.471Z,3.51
2022-11-29T02:29:11.213Z,3.52
2022-11-29T02:32:02.386Z,3.37
2022-11-29T02:34:54.487Z,3.44
2022-11-29T02:37:42.842Z,3.72
2022-11-29T02:40:54.901Z,3.68
2022-11-29T02:43:45.151Z,3.65
2022-11-29T02:46:33.799Z,3.60
2022-11-29T02:49:08.822Z,3.68
2022-11-29T02:51:44.789Z,3.84
2022-11-29T02:54:20.543Z,3.86
2022-11-29T02:56:56.824Z,3.80
2022-11-29T02:59:38.624Z,3.98
2022-11-29T03:02:19.533Z,3.91
2022-11-29T03:04:52.927Z,3.87
2022-11-29T03:07:33.629Z,3.85
2022-11-29T03:10:06.288Z,3.77
2022-11-29T03:12:41.825Z,3.71
2022-11-29T03:15:20.841Z,3.70
2022-11-29T03:18:02.325Z,3.76
2022-11-29T03:20:39.872Z,3.80
2022-11-29T03:23:19.888Z,3.84
2022-11-29T03:25:53.516Z,3.79
2022-11-29T03:28:26.331Z,3.80
2022-11-29T03:30:59.734Z,3.61
2022-11-29T03:33:36.963Z,3.71
2022-11-29T03:36:12.911Z,3.63
2022-11-29T03:38:44.692Z,3.45
2022-11-29T03:41:27.537Z,3.53
2022-11-29T03:44:01.577Z,3.43
2022-11-29T03:46:34.396Z,3.60
2022-11-29T03:49:08.567Z,3.58
2022-11-29T03:51:50.550Z,3.35
2022-11-29T03:54:26.735Z,3.59
2022-11-29T03:56:55.615Z,3.70
2022-11-29T03:59:36.883Z,3.79
2022-11-29T04:02:43.096Z,3.57
2022-11-29T04:05:37.579Z,3.48
2022-11-29T04:08:24.025Z,3.43
2022-11-29T04:11:55.791Z,3.36
2022-11-29T04:14:34.602Z,3.36
2022-11-29T04:17:35.182Z,3.48
2022-11-29T04:20:41.210Z,3.69
2022-11-29T04:23:46.691Z,3.85
2022-11-29T04:27:00.797Z,4.00
2022-11-29T04:29:49.458Z,3.84
2022-11-29T04:33:00.664Z,3.82
2022-11-29T04:35:54.562Z,3.51
2022-11-29T04:38:40.518Z,3.69
2022-11-29T04:41:27.097Z,3.64
2022-11-29T04:44:12.307Z,3.66
2022-11-29T04:46:56.651Z,3.61
2022-11-29T04:49:52.012Z,3.64
2022-11-29T04:52:37.953Z,3.58
2022-11-29T04:55:27.834Z,3.63
2022-11-29T04:58:08.168Z,3.69
2022-11-29T05:00:45.765Z,3.71
2022-11-29T05:03:21.510Z,3.87
2022-11-29T05:05:58.521Z,3.89
2022-11-29T05:08:37.081Z,3.89
2022-11-29T05:11:11.829Z,3.81
2022-11-29T05:13:51.297Z,3.86
2022-11-29T05:16:45.966Z,3.88
2022-11-29T05:19:52.338Z,3.84
2022-11-29T05:22:34.674Z,3.91
2022-11-29T05:25:17.471Z,3.90
2022-11-29T05:27:49.894Z,3.96
2022-11-29T05:30:21.104Z,3.90
2022-11-29T05:32:59.601Z,4.01
2022-11-29T05:35:55.110Z,4.12
2022-11-29T05:38:56.131Z,4.15
2022-11-29T05:41:44.110Z,4.07
2022-11-29T05:44:16.894Z,4.18
2022-11-29T05:46:55.550Z,4.05
2022-11-29T05:49:36.299Z,4.17
2022-11-29T05:52:22.390Z,4.06
2022-11-29T05:55:02.430Z,4.14
2022-11-29T05:57:41.455Z,3.94
2022-11-29T06:00:15.175Z,4.12
2022-11-29T06:02:52.783Z,4.05
2022-11-29T06:05:31.678Z,4.23
2022-11-29T06:08:07.109Z,4.27
2022-11-29T06:10:39.945Z,4.30
2022-11-29T06:13:21.993Z,4.44
2022-11-29T06:16:34.580Z,4.28
2022-11-29T06:19:27.034Z,4.26
2022-11-29T06:22:08.674Z,4.18
2022-11-29T06:24:51.769Z,4.18
2022-11-29T06:27:37.301Z,3.92
2022-11-29T06:30:09.902Z,4.25
2022-11-29T06:32:47.797Z,4.02
2022-11-29T06:35:33.475Z,4.03
2022-11-29T06:38:10.015Z,4.07
2022-11-29T06:40:38.547Z,4.02
2022-11-29T06:43:08.843Z,3.91
2022-11-29T06:45:37.244Z,3.94
2022-11-29T06:48:07.939Z,4.07
2022-11-29T06:50:44.753Z,4.08
2022-11-29T06:53:23.576Z,4.00
2022-11-29T06:55:59.163Z,3.98
2022-11-29T06:58:42.913Z,3.90
2022-11-29T07:01:24.392Z,4.05
2022-11-29T07:04:31.240Z,3.97
2022-11-29T07:06:59.760Z,3.96
2022-11-29T07:09:34.607Z,4.08
2022-11-29T07:12:03.076Z,4.01
2022-11-29T07:14:31.517Z,4.19
2022-11-29T07:17:07.982Z,4.36
2022-11-29T07:19:46.078Z,4.37
2022-11-29T07:22:32.466Z,4.27
2022-11-29T07:25:07.860Z,4.10
2022-11-29T07:27:45.746Z,4.20
2022-11-29T07:30:17.998Z,4.25
2022-11-29T07:33:00.321Z,4.34
2022-11-29T07:35:35.754Z,4.13
2022-11-29T07:38:14.838Z,4.43
2022-11-29T07:40:53.769Z,4.57
2022-11-29T07:43:32.782Z,4.39
2022-11-29T07:46:01.698Z,4.67
2022-11-29T07:48:29.698Z,4.81
2022-11-29T07:50:58.118Z,4.95
2022-11-29T07:53:26.118Z,4.94
2022-11-29T07:55:55.621Z,5.08
2022-11-29T07:58:23.583Z,5.11
2022-11-29T08:00:51.651Z,5.16
2022-11-29T08:03:19.651Z,5.07
2022-11-29T08:05:49.174Z,5.15
2022-11-29T08:08:17.222Z,4.88
2022-11-29T08:10:45.256Z,5.02
2022-11-29T08:13:14.931Z,4.86
2022-11-29T08:15:46.406Z,4.78
2022-11-29T08:18:14.638Z,5.02
2022-11-29T08:20:42.794Z,5.13
2022-11-29T08:23:12.884Z,5.03
2022-11-29T08:25:41.293Z,4.98
2022-11-29T08:28:09.313Z,4.98
2022-11-29T08:30:39.116Z,5.23
2022-11-29T08:33:07.345Z,5.11
2022-11-29T08:35:35.818Z,4.90
2022-11-29T08:38:05.341Z,4.80
2022-11-29T08:40:33.497Z,4.61
2022-11-29T08:43:01.359Z,4.81
2022-11-29T08:45:29.580Z,4.92
2022-11-29T08:47:58.905Z,4.77
2022-11-29T08:50:26.906Z,4.78
2022-11-29T08:53:12.164Z,4.80
2022-11-29T08:55:43.167Z,4.70
2022-11-29T08:58:13.132Z,4.77
2022-11-29T09:00:42.232Z,4.82
2022-11-29T09:03:28.942Z,4.92
2022-11-29T09:05:57.680Z,4.94
2022-11-29T09:08:25.596Z,4.92
2022-11-29T09:10:53.690Z,4.92
2022-11-29T09:13:21.705Z,4.91
2022-11-29T09:15:49.838Z,4.99
2022-11-29T09:18:19.227Z,5.00
2022-11-29T09:20:47.240Z,5.10
2022-11-29T09:23:15.222Z,5.15
2022-11-29T09:25:49.768Z,5.39
2022-11-29T09:28:17.819Z,5.44
2022-11-29T09:30:45.812Z,5.00
2022-11-29T09:33:13.801Z,5.46
2022-11-29T09:35:43.612Z,5.33
2022-11-29T09:38:12.649Z,5.18
2022-11-29T09:40:48.961Z,5.28
2022-11-29T09:43:27.808Z,5.32
2022-11-29T09:46:03.122Z,5.38
2022-11-29T09:49:00.214Z,5.63
2022-11-29T09:51:43.936Z,5.58
2022-11-29T09:54:25.467Z,5.47
2022-11-29T09:56:56.302Z,5.49
2022-11-29T09:59:29.108Z,5.50
2022-11-29T10:02:04.389Z,5.65
2022-11-29T10:04:40.191Z,5.49
2022-11-29T10:07:18.809Z,5.82
2022-11-29T10:09:51.569Z,5.65
2022-11-29T10:12:24.027Z,5.60
2022-11-29T10:14:58.076Z,5.66
2022-11-29T10:17:37.272Z,5.61
2022-11-29T10:20:11.981Z,5.50
2022-11-29T10:22:49.525Z,5.71
2022-11-29T10:25:24.158Z,5.73
2022-11-29T10:27:52.656Z,5.59
2022-11-29T10:30:20.794Z,5.50
2022-11-29T10:32:56.350Z,5.10
2022-11-29T10:35:24.870Z,5.61
2022-11-29T10:38:29.144Z,4.86
2022-11-29T10:40:48.579Z,5.59
2022-11-29T10:43:16.718Z,5.65
2022-11-29T10:45:50.435Z,5.34
2022-11-29T10:48:21.033Z,5.50
2022-11-29T10:50:50.922Z,5.42
2022-11-29T10:53:23.786Z,5.49
2022-11-29T10:55:54.891Z,5.44
2022-11-29T10:58:28.465Z,5.39
2022-11-29T11:00:59.538Z,5.52
2022-11-29T11:03:37.153Z,5.67
2022-11-29T11:06:12.240Z,5.79
2022-11-29T11:08:45.016Z,5.66
2022-11-29T11:11:13.991Z,5.64
2022-11-29T11:13:43.019Z,5.70
2022-11-29T11:16:17.368Z,5.81
2022-11-29T11:18:47.641Z,5.83
2022-11-29T11:21:17.142Z,5.82
2022-11-29T11:23:55.008Z,5.79
2022-11-29T11:26:24.364Z,5.95
2022-11-29T11:28:56.148Z,5.81
2022-11-29T11:31:30.830Z,6.05
2022-11-29T11:34:18.988Z,6.03
2022-11-29T11:36:46.981Z,5.80
2022-11-29T11:39:21.581Z,5.75
2022-11-29T11:42:08.608Z,5.73
2022-11-29T11:44:48.410Z,5.70
2022-11-29T11:47:19.420Z,5.86
2022-11-29T11:49:50.188Z,5.66
2022-11-29T11:52:22.014Z,5.70
2022-11-29T11:54:56.142Z,5.52
2022-11-29T11:57:26.556Z,5.46
2022-11-29T12:00:06.392Z,5.43
2022-11-29T12:02:39.318Z,5.56
2022-11-29T12:05:14.118Z,5.61
2022-11-29T12:10:39.952Z,5.72
2022-11-29T12:13:13.878Z,5.69
2022-11-29T12:15:45.890Z,5.54
2022-11-29T12:18:17.394Z,5.46
2022-11-29T12:20:53.625Z,5.50
2022-11-29T12:23:30.288Z,5.48
2022-11-29T12:26:05.315Z,5.34
2022-11-29T12:28:35.978Z,5.47
2022-11-29T12:31:15.020Z,5.47
2022-11-29T12:33:51.387Z,5.53
2022-11-29T12:36:29.826Z,5.47
2022-11-29T12:39:26.306Z,5.56
2022-11-29T12:42:01.145Z,5.76
2022-11-29T12:44:44.726Z,5.70
2022-11-29T12:47:35.629Z,5.91
2022-11-29T12:50:14.107Z,5.65
2022-11-29T12:52:49.641Z,5.60
2022-11-29T12:55:24.364Z,5.70
2022-11-29T12:58:03.236Z,5.48
2022-11-29T13:00:37.309Z,5.42
2022-11-29T13:03:16.563Z,5.43
2022-11-29T13:05:55.873Z,5.39
2022-11-29T13:08:52.805Z,5.45
2022-11-29T13:11:26.221Z,5.54
2022-11-29T13:14:20.148Z,5.36
2022-11-29T13:16:57.260Z,5.18
2022-11-29T13:19:30.797Z,5.44
2022-11-29T13:22:07.270Z,5.43
2022-11-29T13:24:42.894Z,5.58
2022-11-29T13:27:17.265Z,5.50
2022-11-29T13:29:47.492Z,5.48
2022-11-29T13:32:32.557Z,5.28
2022-11-29T13:35:06.812Z,5.32
2022-11-29T13:37:40.257Z,5.33
2022-11-29T13:40:24.610Z,5.24
2022-11-29T13:43:01.217Z,5.14
2022-11-29T13:45:42.034Z,5.39
2022-11-29T13:48:32.976Z,5.35
2022-11-29T13:51:29.154Z,5.45
2022-11-29T13:53:59.020Z,5.41
2022-11-29T13:56:36.475Z,5.51
2022-11-29T13:59:09.933Z,5.33
2022-11-29T14:01:47.608Z,5.40
2022-11-29T14:04:35.705Z,5.34
2022-11-29T14:07:10.118Z,5.34
2022-11-29T14:09:44.626Z,5.37
2022-11-29T14:12:27.086Z,5.74
2022-11-29T14:14:58.628Z,5.79
2022-11-29T14:17:46.596Z,5.53
2022-11-29T14:20:51.165Z,5.41
2022-11-29T14:23:32.584Z,5.28
2022-11-29T14:26:29.258Z,5.21
2022-11-29T14:28:58.498Z,5.39
2022-11-29T14:31:56.178Z,5.46
2022-11-29T14:34:35.995Z,5.47
2022-11-29T14:37:15.560Z,5.29
2022-11-29T14:39:48.024Z,5.27
2022-11-29T14:42:18.756Z,5.22
2022-11-29T14:44:56.123Z,5.17
2022-11-29T14:47:29.829Z,5.14
2022-11-29T14:50:01.216Z,5.06
2022-11-29T14:52:32.679Z,5.11
2022-11-29T14:55:29.098Z,5.11
2022-11-29T14:58:19.718Z,5.27
2022-11-29T15:01:10.919Z,5.27
2022-11-29T15:03:50.642Z,5.29
2022-11-29T15:06:26.635Z,5.29
2022-11-29T15:09:04.453Z,5.36
2022-11-29T15:11:41.438Z,5.24
2022-11-29T15:14:20.508Z,5.25
2022-11-29T15:17:05.833Z,5.39
2022-11-29T15:20:17.430Z,5.45
2022-11-29T15:22:52.641Z,5.35
2022-11-29T15:25:23.184Z,5.40
2022-11-29T15:27:55.271Z,5.23
2022-11-29T15:30:30.638Z,5.20
2022-11-29T15:32:59.590Z,5.41
2022-11-29T15:35:28.302Z,5.24
2022-11-29T15:37:58.071Z,5.27
2022-11-29T15:40:34.396Z,5.35
2022-11-29T15:43:12.520Z,5.69
2022-11-29T15:45:40.976Z,5.86
2022-11-29T15:48:14.927Z,5.91
2022-11-29T15:50:48.338Z,5.89
2022-11-29T15:53:22.849Z,5.95
2022-11-29T15:55:53.495Z,6.02
2022-11-29T15:58:22.109Z,6.05
2022-11-29T16:00:51.781Z,6.01
2022-11-29T16:03:25.343Z,6.17
2022-11-29T16:06:01.349Z,6.14
2022-11-29T16:08:35.710Z,5.97
2022-11-29T16:11:03.913Z,6.06
2022-11-29T16:13:36.981Z,6.03
2022-11-29T16:16:12.842Z,6.17
2022-11-29T16:18:43.217Z,6.08
2022-11-29T16:21:24.252Z,6.11
2022-11-29T16:23:53.899Z,6.13
2022-11-29T16:26:25.544Z,5.87
2022-11-29T16:28:56.413Z,5.59
2022-11-29T16:31:31.812Z,5.47
2022-11-29T16:34:08.045Z,5.34
2022-11-29T16:36:36.562Z,5.63
2022-11-29T16:39:16.080Z,5.70
2022-11-29T16:41:44.161Z,5.89
2022-11-29T16:44:57.379Z,5.96
2022-11-29T16:47:27.313Z,5.71
2022-11-29T16:50:13.397Z,5.86
2022-11-29T16:52:41.609Z,5.75
2022-11-29T16:55:11.013Z,5.64
2022-11-29T16:57:39.606Z,5.35
2022-11-29T17:00:12.644Z,5.35
2022-11-29T17:02:40.661Z,5.34
2022-11-29T17:05:10.024Z,5.44
2022-11-29T17:07:40.044Z,5.53
2022-11-29T17:10:15.653Z,5.45
2022-11-29T17:12:47.980Z,5.31
2022-11-29T17:15:16.626Z,5.49
2022-11-29T17:17:44.885Z,5.16
2022-11-29T17:20:13.757Z,5.48
2022-11-29T17:22:41.870Z,5.48
2022-11-29T17:25:11.615Z,5.46
2022-11-29T17:27:39.792Z,5.29
2022-11-29T17:30:11.364Z,5.26
2022-11-29T17:32:39.509Z,5.46
2022-11-29T17:35:09.376Z,5.29
2022-11-29T17:37:37.279Z,5.29
2022-11-29T17:40:09.258Z,5.33
2022-11-29T17:42:38.741Z,5.26
2022-11-29T17:45:08.182Z,5.25
2022-11-29T17:47:36.130Z,5.25
2022-11-29T17:50:04.400Z,5.20
2022-11-29T17:52:32.393Z,5.23
2022-11-29T17:55:00.424Z,5.16
2022-11-29T17:57:28.439Z,5.19
2022-11-29T17:59:57.861Z,5.17
2022-11-29T18:02:25.884Z,5.14
2022-11-29T18:04:53.835Z,5.20
2022-11-29T18:07:21.880Z,5.29
2022-11-29T18:09:51.200Z,5.04
2022-11-29T18:12:20.163Z,4.98
2022-11-29T18:14:50.215Z,5.04
2022-11-29T18:17:19.605Z,5.00
2022-11-29T18:19:47.835Z,5.09
2022-11-29T18:22:16.033Z,5.05
2022-11-29T18:24:44.601Z,5.09
2022-11-29T18:27:12.559Z,5.13
2022-11-29T18:29:40.777Z,5.30
2022-11-29T18:32:08.862Z,5.27
2022-11-29T18:34:38.163Z,5.22
2022-11-29T18:37:08.848Z,5.29
2022-11-29T18:39:40.462Z,5.32
2022-11-29T18:42:08.442Z,5.18
2022-11-29T18:44:36.454Z,5.37
2022-11-29T18:47:04.730Z,5.29
2022-11-29T18:49:32.666Z,5.35
2022-11-29T18:52:01.928Z,5.25
2022-11-29T18:54:30.973Z,5.21
2022-11-29T18:56:58.947Z,5.35
2022-11-29T18:59:26.879Z,5.28
2022-11-29T19:01:54.813Z,5.37
2022-11-29T19:04:22.819Z,5.36
2022-11-29T19:06:50.876Z,5.50
2022-11-29T19:09:22.339Z,5.33
2022-11-29T19:11:50.717Z,5.43
2022-11-29T19:14:19.543Z,5.30
2022-11-29T19:16:49.511Z,5.17
2022-11-29T19:19:18.685Z,5.28
2022-11-29T19:21:46.654Z,5.18
2022-11-29T19:24:15.920Z,5.20
2022-11-29T19:26:47.452Z,5.25
2022-11-29T19:29:15.809Z,5.33
2022-11-29T19:31:43.885Z,5.33
2022-11-29T19:34:11.977Z,5.10
2022-11-29T19:36:43.289Z,5.12
2022-11-29T19:39:12.936Z,5.10
2022-11-29T19:41:42.340Z,5.12
2022-11-29T19:44:12.534Z,5.30
2022-11-29T19:46:42.522Z,5.15
2022-11-29T19:49:11.124Z,5.39
2022-11-29T19:51:39.449Z,5.14
2022-11-29T19:54:09.051Z,4.81
2022-11-29T19:56:37.078Z,5.13
2022-11-29T19:59:05.725Z,5.15
2022-11-29T20:01:40.800Z,5.02
2022-11-29T20:04:10.689Z,4.15
2022-11-29T20:06:39.242Z,4.85
2022-11-29T20:09:09.086Z,5.20
2022-11-29T20:11:37.158Z,5.27
2022-11-29T20:14:07.200Z,5.40
2022-11-29T20:16:39.046Z,5.34
2022-11-29T20:19:10.935Z,5.30
2022-11-29T20:21:43.318Z,5.26
2022-11-29T20:24:13.058Z,5.27
2022-11-29T20:26:44.013Z,5.39
2022-11-29T20:29:13.191Z,5.43
2022-11-29T20:31:49.517Z,5.47
2022-11-29T20:34:19.085Z,5.25
2022-11-29T20:37:21.889Z,5.29
2022-11-29T20:39:55.610Z,5.15
2022-11-29T20:43:06.933Z,4.96
2022-11-29T20:45:35.528Z,4.98
2022-11-29T20:48:11.297Z,5.05
2022-11-29T20:50:39.681Z,4.99
2022-11-29T20:53:21.151Z,5.22
2022-11-29T20:55:49.326Z,5.15
2022-11-29T20:58:18.461Z,5.05
2022-11-29T21:00:46.862Z,5.11
2022-11-29T21:03:17.388Z,5.01
2022-11-29T21:05:45.473Z,5.16
2022-11-29T21:08:14.257Z,5.25
2022-11-29T21:10:42.708Z,5.17
2022-11-29T21:13:12.790Z,5.36
2022-11-29T21:15:41.430Z,5.33
2022-11-29T21:18:17.249Z,5.18
2022-11-29T21:20:51.652Z,5.07
2022-11-29T21:23:26.095Z,5.11
2022-11-29T21:25:59.399Z,4.74
2022-11-29T21:28:33.126Z,5.12
2022-11-29T21:31:01.946Z,5.23
2022-11-29T21:33:30.465Z,5.25
2022-11-29T21:35:59.797Z,5.27
2022-11-29T21:38:30.830Z,5.29
2022-11-29T21:40:58.749Z,5.50
2022-11-29T21:43:57.881Z,5.34
2022-11-29T21:46:14.984Z,5.39
2022-11-29T21:48:43.020Z,5.28
2022-11-29T21:51:13.181Z,5.39
2022-11-29T21:53:41.388Z,5.40
2022-11-29T21:56:11.518Z,5.34
2022-11-29T21:58:40.327Z,5.45
2022-11-29T22:01:10.369Z,5.52
2022-11-29T22:03:38.947Z,5.47
2022-11-29T22:06:09.120Z,5.65
2022-11-29T22:08:40.350Z,5.43
2022-11-29T22:11:10.986Z,5.29
2022-11-29T22:14:01.011Z,5.33
2022-11-29T22:16:29.522Z,5.14
2022-11-29T22:18:57.537Z,5.46
2022-11-29T22:21:25.505Z,5.47
2022-11-29T22:23:54.816Z,5.39
2022-11-29T22:26:22.722Z,5.31
2022-11-29T22:28:50.733Z,5.36
2022-11-29T22:31:18.787Z,5.21
2022-11-29T22:33:46.774Z,5.19
2022-11-29T22:36:14.765Z,5.23
2022-11-29T22:38:42.727Z,5.30
2022-11-29T22:41:13.991Z,5.39
2022-11-29T22:43:42.571Z,5.49
2022-11-29T22:46:13.570Z,5.26
2022-11-29T22:48:42.822Z,5.11
2022-11-29T22:51:12.599Z,5.08
2022-11-29T22:53:42.497Z,5.20
2022-11-29T22:56:12.744Z,5.52
2022-11-29T22:58:40.702Z,5.28
2022-11-29T23:01:10.818Z,5.17
2022-11-29T23:03:40.562Z,5.29
2022-11-29T23:06:10.250Z,5.29
2022-11-29T23:08:38.872Z,5.20
2022-11-29T23:11:08.847Z,5.14
2022-11-29T23:13:40.046Z,5.09
2022-11-29T23:16:10.423Z,5.32
2022-11-29T23:18:39.281Z,5.15
2022-11-29T23:21:09.282Z,5.04
2022-11-29T23:23:37.884Z,5.13
2022-11-29T23:26:07.071Z,5.16
2022-11-29T23:28:37.138Z,5.11
2022-11-29T23:31:05.127Z,5.16
2022-11-29T23:33:33.082Z,5.17
2022-11-29T23:36:02.401Z,5.06
2022-11-29T23:38:30.589Z,5.22
2022-11-29T23:40:58.606Z,5.38
2022-11-29T23:43:29.674Z,5.29
2022-11-29T23:45:59.323Z,5.14
2022-11-29T23:48:27.564Z,5.20
2022-11-29T23:50:55.589Z,5.24
2022-11-29T23:53:23.588Z,5.16
2022-11-29T23:55:57.463Z,4.96
2022-11-29T23:58:25.765Z,5.19
